Time;durP1;ratioP1;P1;durP2;ratioP2;P2;SDS_P1;SDS_P2;PMS_P1;PMS_P2;Temp;Humidity;BMP_temperature;BMP_pressure;BME280_temperature;BME280_humidity;BME280_pressure;Samples;Min_cycle;Max_cycle;Signal;HPM_P1;HPM_P2
2024/01/09 00:00:34;;;;;;;21.33;11.17;;;;;;;-6.00;66.88;101457.97;2545625;28;20045;-80
2024/01/09 00:01:50;;;;;;;19.60;11.83;;;;;;;-6.01;66.60;101476.56;2545802;28;20630;-80
2024/01/09 00:03:04;;;;;;;18.40;12.80;;;;;;;-6.02;66.85;101468.03;2546562;28;20060;-81
2024/01/09 00:04:18;;;;;;;15.90;11.80;;;;;;;-6.02;66.99;101472.22;2554302;28;20313;-80
2024/01/09 00:05:32;;;;;;;21.23;14.57;;;;;;;-6.03;66.84;101466.25;2546156;28;20041;-80
2024/01/09 00:06:46;;;;;;;17.00;10.87;;;;;;;-6.03;66.65;101470.47;2552287;28;20348;-80
2024/01/09 00:08:00;;;;;;;22.00;13.93;;;;;;;-6.04;66.76;101473.78;2547554;28;20049;-80
2024/01/09 00:09:14;;;;;;;22.00;11.93;;;;;;;-6.05;66.86;101465.25;2545138;28;20309;-80
2024/01/09 00:10:27;;;;;;;18.60;12.53;;;;;;;-6.05;66.64;101466.94;2546693;28;20056;-80
2024/01/09 00:11:42;;;;;;;19.40;12.20;;;;;;;-6.06;66.75;101472.81;2546292;28;20303;-81
2024/01/09 00:12:56;;;;;;;14.63;11.47;;;;;;;-6.07;66.75;101466.81;2546142;28;20044;-80
2024/01/09 00:14:11;;;;;;;21.97;15.93;;;;;;;-6.06;66.73;101472.81;2545211;28;20382;-81
2024/01/09 00:15:25;;;;;;;16.03;11.73;;;;;;;-6.08;66.74;101469.25;2545592;28;20098;-80
2024/01/09 00:16:39;;;;;;;24.47;13.50;;;;;;;-6.07;66.81;101471.00;2545356;28;20707;-80
2024/01/09 00:17:54;;;;;;;20.73;12.23;;;;;;;-6.07;66.40;101461.72;2544456;28;20529;-81
2024/01/09 00:19:08;;;;;;;23.30;14.43;;;;;;;-6.05;66.24;101465.25;2545177;28;20755;-80
2024/01/09 00:20:22;;;;;;;16.47;11.80;;;;;;;-6.05;66.29;101469.47;2545018;28;20307;-80
2024/01/09 00:21:36;;;;;;;21.97;15.03;;;;;;;-6.06;66.57;101467.72;2545354;28;20286;-80
2024/01/09 00:22:50;;;;;;;15.10;10.27;;;;;;;-6.07;66.03;101473.56;2546641;28;20067;-80
2024/01/09 00:24:05;;;;;;;19.10;13.37;;;;;;;-6.06;66.42;101467.72;2546961;28;20410;-81
2024/01/09 00:25:19;;;;;;;17.20;10.77;;;;;;;-6.05;66.18;101477.09;2547622;28;20359;-82
2024/01/09 00:26:40;;;;;;;20.57;13.97;;;;;;;-6.05;66.26;101469.47;2546909;28;20476;-79
2024/01/09 00:27:54;;;;;;;27.97;15.17;;;;;;;-6.06;66.42;101470.25;2547287;28;20064;-81
2024/01/09 00:29:08;;;;;;;16.77;12.27;;;;;;;-6.06;66.34;101475.34;2545947;28;20307;-81
2024/01/09 00:30:22;;;;;;;22.17;12.60;;;;;;;-6.08;66.61;101469.25;2546314;28;20092;-79
2024/01/09 00:31:36;;;;;;;20.30;12.97;;;;;;;-6.08;66.21;101469.25;2545631;28;20321;-80
2024/01/09 00:32:50;;;;;;;17.70;12.20;;;;;;;-6.10;66.41;101481.84;2546218;28;20072;-80
2024/01/09 00:34:06;;;;;;;23.30;14.90;;;;;;;-6.09;66.48;101472.56;2546591;28;20315;-79
2024/01/09 00:35:19;;;;;;;15.57;10.63;;;;;;;-6.11;66.36;101474.13;2545981;28;20430;-80
2024/01/09 00:36:34;;;;;;;18.90;12.37;;;;;;;-6.10;66.26;101475.88;2546027;28;20302;-80
2024/01/09 00:37:47;;;;;;;18.23;13.27;;;;;;;-6.11;66.25;101477.53;2546487;28;20044;-80
2024/01/09 00:39:01;;;;;;;23.27;13.00;;;;;;;-6.11;66.41;101475.00;2547007;28;20307;-81
2024/01/09 00:40:15;;;;;;;26.00;16.47;;;;;;;-6.12;66.42;101478.31;2547285;28;20049;-80
2024/01/09 00:41:29;;;;;;;24.33;14.20;;;;;;;-6.13;66.37;101476.53;2547847;28;20285;-80
2024/01/09 00:42:43;;;;;;;19.90;11.40;;;;;;;-6.16;66.37;101467.06;2547573;28;20045;-80
2024/01/09 00:43:57;;;;;;;16.43;9.83;;;;;;;-6.15;66.62;101473.00;2547427;28;20303;-80
2024/01/09 00:45:11;;;;;;;21.17;10.93;;;;;;;-6.15;66.37;101478.09;2547484;28;20053;-79
2024/01/09 00:46:26;;;;;;;20.37;13.87;;;;;;;-6.15;66.52;101475.53;2550622;28;20810;-80
2024/01/09 00:47:40;;;;;;;15.87;10.73;;;;;;;-6.15;66.36;101478.09;2552193;28;20048;-79
2024/01/09 00:48:54;;;;;;;22.20;14.00;;;;;;;-6.15;66.58;101473.00;2548359;28;20315;-80
2024/01/09 00:50:09;;;;;;;26.47;14.80;;;;;;;-6.15;66.68;101476.44;2548037;28;20052;-81
2024/01/09 00:51:24;;;;;;;17.13;10.37;;;;;;;-6.17;66.30;101460.22;2548632;28;20661;-81
2024/01/09 00:52:37;;;;;;;21.63;13.43;;;;;;;-6.16;66.51;101479.75;2548619;28;20303;-81
2024/01/09 00:53:54;;;;;;;15.57;12.37;;;;;;;-6.16;66.45;101467.06;2550392;28;20288;-80
2024/01/09 00:55:08;;;;;;;28.07;14.30;;;;;;;-6.14;66.50;101469.72;2550528;28;20049;-80
2024/01/09 00:56:21;;;;;;;19.87;13.23;;;;;;;-6.16;66.26;101464.50;2552250;28;20318;-79
2024/01/09 00:57:36;;;;;;;15.27;9.43;;;;;;;-6.15;66.47;101471.34;2550210;28;20431;-81
2024/01/09 00:58:50;;;;;;;15.37;10.20;;;;;;;-6.17;66.15;101467.84;2549088;28;20057;-81
2024/01/09 01:00:05;;;;;;;19.53;13.37;;;;;;;-6.17;66.37;101478.00;2550006;28;20303;-79
2024/01/09 01:01:19;;;;;;;18.50;12.73;;;;;;;-6.16;66.22;101479.75;2543879;28;20575;-80
2024/01/09 01:02:33;;;;;;;14.23;10.87;;;;;;;-6.18;66.24;101481.28;2552186;28;20316;-80
2024/01/09 01:03:46;;;;;;;19.57;13.50;;;;;;;-6.18;66.29;101476.22;2545281;28;20255;-80
2024/01/09 01:05:01;;;;;;;19.67;11.87;;;;;;;-6.17;65.82;101484.72;2550235;28;20314;-81
2024/01/09 01:06:16;;;;;;;16.03;12.17;;;;;;;-6.17;66.15;101479.63;2550164;28;20052;-80
2024/01/09 01:07:30;;;;;;;21.13;12.93;;;;;;;-6.17;66.22;101485.63;2549735;28;20308;-80
2024/01/09 01:08:44;;;;;;;23.23;13.77;;;;;;;-6.18;66.23;101477.88;2549235;28;20306;-81
2024/01/09 01:09:57;;;;;;;26.23;15.67;;;;;;;-6.19;66.15;101487.16;2549341;28;20318;-79
2024/01/09 01:11:11;;;;;;;23.30;14.43;;;;;;;-6.20;66.40;101485.38;2549620;28;20053;-80
2024/01/09 01:12:25;;;;;;;25.63;15.07;;;;;;;-6.21;66.35;101483.63;2548861;28;20049;-81
2024/01/09 01:13:39;;;;;;;18.63;12.90;;;;;;;-6.20;66.29;101487.03;2548593;28;20355;-82
2024/01/09 01:14:53;;;;;;;20.50;13.47;;;;;;;-6.21;66.37;101485.28;2549344;28;20067;-82
2024/01/09 01:16:07;;;;;;;17.57;10.67;;;;;;;-6.22;66.17;101483.50;2548749;28;20304;-81
2024/01/09 01:17:21;;;;;;;18.40;12.73;;;;;;;-6.23;66.54;101487.69;2548281;28;20049;-81
2024/01/09 01:18:35;;;;;;;23.40;14.07;;;;;;;-6.21;66.43;101481.06;2548947;28;20311;-80
2024/01/09 01:19:48;;;;;;;21.73;14.83;;;;;;;-6.21;66.45;101482.75;2548851;28;20079;-81
2024/01/09 01:21:03;;;;;;;21.97;14.50;;;;;;;-6.22;66.48;101486.03;2548743;28;20395;-81
2024/01/09 01:22:18;;;;;;;26.13;14.60;;;;;;;-6.23;66.29;101497.00;2548945;28;20060;-81
2024/01/09 01:23:32;;;;;;;20.77;12.37;;;;;;;-6.26;66.50;101495.09;2549184;28;20849;-80
2024/01/09 01:24:46;;;;;;;15.77;10.37;;;;;;;-6.25;66.33;101499.41;2548522;28;20306;-80
2024/01/09 01:26:00;;;;;;;24.00;13.37;;;;;;;-6.24;66.22;101483.41;2548270;28;20297;-80
2024/01/09 01:27:14;;;;;;;20.63;14.73;;;;;;;-6.22;66.33;101492.03;2548610;28;20064;-78
2024/01/09 01:28:28;;;;;;;21.93;13.63;;;;;;;-6.23;66.25;101479.19;2548395;28;20309;-78
2024/01/09 01:29:42;;;;;;;24.03;15.07;;;;;;;-6.23;66.43;101484.28;2547908;28;20422;-80
2024/01/09 01:30:56;;;;;;;20.83;13.97;;;;;;;-6.24;66.10;101478.31;2548834;28;20313;-78
2024/01/09 01:32:10;;;;;;;20.77;12.93;;;;;;;-6.24;66.29;101488.50;2556215;28;20048;-80
2024/01/09 01:33:24;;;;;;;23.17;13.17;;;;;;;-6.25;66.30;101486.69;2547999;28;20656;-80
2024/01/09 01:34:38;;;;;;;22.17;14.47;;;;;;;-6.27;66.48;101493.34;2548142;28;20052;-80
2024/01/09 01:35:52;;;;;;;21.50;11.97;;;;;;;-6.28;66.44;101481.41;2551851;28;20299;-78
2024/01/09 01:37:06;;;;;;;15.13;9.70;;;;;;;-6.27;66.33;101485.72;2548364;28;20063;-80
2024/01/09 01:38:21;;;;;;;16.07;11.23;;;;;;;-6.28;66.29;101483.06;2540960;28;20391;-78
2024/01/09 01:39:36;;;;;;;18.00;10.17;;;;;;;-6.28;66.42;101491.56;2549618;28;20049;-79
2024/01/09 01:40:50;;;;;;;22.43;15.17;;;;;;;-6.29;66.22;101489.81;2549314;28;20315;-78
2024/01/09 01:42:04;;;;;;;25.17;14.63;;;;;;;-6.28;66.50;101485.59;2549531;28;20660;-80
2024/01/09 01:43:19;;;;;;;24.80;14.37;;;;;;;-6.29;66.50;101494.00;2549150;28;20307;-80
2024/01/09 01:44:32;;;;;;;20.97;13.97;;;;;;;-6.32;66.33;101486.16;2550005;28;20041;-78
2024/01/09 01:45:46;;;;;;;15.30;9.20;;;;;;;-6.33;66.23;101492.00;2549439;28;20366;-80
2024/01/09 01:47:00;;;;;;;21.70;13.93;;;;;;;-6.36;66.42;101488.47;2548627;28;20053;-79
2024/01/09 01:48:15;;;;;;;24.30;14.73;;;;;;;-6.35;66.54;101504.59;2549683;28;20314;-78
2024/01/09 01:49:29;;;;;;;20.07;11.37;;;;;;;-6.36;66.51;101492.66;2549907;28;20415;-78
2024/01/09 01:50:43;;;;;;;21.47;15.80;;;;;;;-6.36;66.56;101487.59;2550035;28;20315;-79
2024/01/09 01:51:57;;;;;;;26.60;16.80;;;;;;;-6.37;66.57;101485.84;2550419;28;20052;-80
2024/01/09 01:53:11;;;;;;;22.33;13.73;;;;;;;-6.37;66.57;101485.84;2549137;28;20318;-79
2024/01/09 01:54:27;;;;;;;19.43;13.33;;;;;;;-6.37;66.46;101486.72;2550255;28;20048;-80
2024/01/09 01:55:41;;;;;;;22.30;14.67;;;;;;;-6.37;66.49;101490.91;2547582;28;20298;-80
2024/01/09 01:56:56;;;;;;;30.77;16.17;;;;;;;-6.37;66.61;101491.78;2549542;28;20291;-79
2024/01/09 01:58:11;;;;;;;21.97;13.47;;;;;;;-6.38;66.67;101490.00;2549464;28;20310;-80
2024/01/09 01:59:24;;;;;;;21.17;12.63;;;;;;;-6.37;66.59;101496.00;2549870;28;20303;-79
2024/01/09 02:00:39;;;;;;;19.70;11.07;;;;;;;-6.37;66.57;101485.84;2550238;28;20790;-78
2024/01/09 02:01:52;;;;;;;19.30;12.27;;;;;;;-6.38;66.55;101490.00;2549391;28;20048;-78
2024/01/09 02:03:07;;;;;;;22.50;14.80;;;;;;;-6.39;66.53;101485.72;2549118;28;20318;-79
2024/01/09 02:04:21;;;;;;;26.77;15.77;;;;;;;-6.37;66.40;101488.38;2540445;28;20037;-79
2024/01/09 02:05:36;;;;;;;17.57;12.67;;;;;;;-6.38;66.61;101469.69;2548059;28;20732;-80
2024/01/09 02:06:50;;;;;;;23.90;14.20;;;;;;;-6.40;66.59;101486.50;2549423;28;20311;-80
2024/01/09 02:08:06;;;;;;;26.30;14.17;;;;;;;-6.42;66.61;101477.88;2548906;28;20306;-79
2024/01/09 02:09:20;;;;;;;31.07;15.17;;;;;;;-6.40;66.65;101485.59;2548769;28;20049;-80
2024/01/09 02:10:36;;;;;;;27.67;16.00;;;;;;;-6.41;66.71;101482.16;2548988;28;20299;-78
2024/01/09 02:11:49;;;;;;;36.00;17.43;;;;;;;-6.40;66.50;101481.41;2549137;28;20673;-80
2024/01/09 02:13:04;;;;;;;22.07;13.27;;;;;;;-6.39;66.67;101482.28;2548362;28;20313;-80
2024/01/09 02:14:18;;;;;;;23.47;14.27;;;;;;;-6.39;66.62;101487.38;2547290;28;20048;-80
2024/01/09 02:15:32;;;;;;;20.77;11.23;;;;;;;-6.40;66.55;101475.44;2542674;28;20307;-80
2024/01/09 02:16:45;;;;;;;24.27;15.93;;;;;;;-6.40;66.36;101483.97;2548977;28;20045;-80
2024/01/09 02:18:00;;;;;;;28.47;15.17;;;;;;;-6.39;66.55;101477.22;2549533;28;20287;-81
2024/01/09 02:19:13;;;;;;;23.17;14.63;;;;;;;-6.39;66.43;101489.91;2548871;28;20418;-80
2024/01/09 02:20:28;;;;;;;18.30;12.80;;;;;;;-6.40;66.25;101480.50;2549582;28;20303;-79
2024/01/09 02:21:41;;;;;;;17.23;10.60;;;;;;;-6.40;66.37;101488.13;2549220;28;20037;-79
2024/01/09 02:22:56;;;;;;;21.53;12.93;;;;;;;-6.40;66.21;101486.50;2549316;28;20318;-79
2024/01/09 02:24:09;;;;;;;22.10;14.63;;;;;;;-6.40;66.38;101485.59;2549040;28;20391;-79
2024/01/09 02:25:24;;;;;;;25.43;11.77;;;;;;;-6.41;66.27;101488.91;2549002;28;20314;-80
2024/01/09 02:26:45;;;;;;;22.00;14.00;;;;;;;-6.41;66.14;101483.84;2549575;28;20281;-79
2024/01/09 02:28:04;;;;;;;14.17;9.30;;;;;;;-6.41;66.23;101477.09;2549460;28;20380;-80
2024/01/09 02:29:22;;;;;;;19.43;12.40;;;;;;;-6.42;66.25;101487.16;2549049;28;20275;-80
2024/01/09 02:30:38;;;;;;;21.00;13.50;;;;;;;-6.39;66.13;101483.16;2549327;28;20315;-79
2024/01/09 02:31:51;;;;;;;17.47;11.60;;;;;;;-6.39;65.99;101487.38;2549647;28;20302;-79
2024/01/09 02:33:07;;;;;;;26.23;14.87;;;;;;;-6.40;66.17;101483.03;2548867;28;20310;-80
2024/01/09 02:34:21;;;;;;;15.93;11.57;;;;;;;-6.39;65.99;101482.28;2550913;28;20049;-80
2024/01/09 02:35:35;;;;;;;15.10;10.73;;;;;;;-6.38;66.11;101484.94;2555433;28;20299;-80
2024/01/09 02:36:49;;;;;;;22.20;13.60;;;;;;;-6.38;66.06;101486.59;2549052;28;20052;-81
2024/01/09 02:38:03;;;;;;;22.17;12.53;;;;;;;-6.40;65.96;101471.25;2548676;28;20294;-81
2024/01/09 02:39:17;;;;;;;20.03;11.97;;;;;;;-6.41;66.02;101484.72;2548753;28;20057;-79
2024/01/09 02:40:32;;;;;;;19.80;10.73;;;;;;;-6.41;66.14;101483.84;2548895;28;20299;-80
2024/01/09 02:41:46;;;;;;;19.03;13.27;;;;;;;-6.42;66.00;101477.88;2548251;28;20093;-80
2024/01/09 02:43:01;;;;;;;24.23;15.90;;;;;;;-6.42;65.75;101474.47;2549293;28;20299;-81
2024/01/09 02:44:14;;;;;;;22.97;11.37;;;;;;;-6.42;66.16;101480.41;2549780;28;20315;-79
2024/01/09 02:45:29;;;;;;;23.70;15.07;;;;;;;-6.43;65.93;101477.75;2549204;28;20286;-80
2024/01/09 02:46:44;;;;;;;27.70;15.40;;;;;;;-6.45;66.11;101482.75;2555964;28;20047;-80
2024/01/09 02:47:59;;;;;;;24.70;16.33;;;;;;;-6.45;66.17;101470.03;2553116;28;20327;-80
2024/01/09 02:49:12;;;;;;;30.60;15.30;;;;;;;-6.44;66.12;101473.47;2549638;28;20295;-79
2024/01/09 02:50:27;;;;;;;29.10;14.17;;;;;;;-6.47;66.15;101466.50;2550327;28;20673;-80
2024/01/09 02:51:40;;;;;;;18.43;12.40;;;;;;;-6.46;66.06;101472.47;2553816;28;20049;-80
2024/01/09 02:52:54;;;;;;;28.20;15.60;;;;;;;-6.46;66.00;101467.38;2522324;28;20312;-79
2024/01/09 02:54:08;;;;;;;21.17;14.63;;;;;;;-6.47;66.09;101469.03;2549355;28;20049;-80
2024/01/09 02:55:22;;;;;;;20.87;13.93;;;;;;;-6.47;66.17;101469.03;2548502;28;20309;-80
2024/01/09 02:56:37;;;;;;;23.03;13.23;;;;;;;-6.47;66.11;101468.16;2548921;28;20045;-80
2024/01/09 02:57:51;;;;;;;25.07;15.77;;;;;;;-6.47;66.22;101463.09;2548109;28;20664;-79
2024/01/09 02:59:04;;;;;;;26.90;17.50;;;;;;;-6.47;65.90;101463.09;2548867;28;20295;-79
2024/01/09 03:00:19;;;;;;;22.50;14.30;;;;;;;-6.48;65.95;101461.28;2549006;28;20309;-78
2024/01/09 03:01:32;;;;;;;26.60;14.20;;;;;;;-6.49;66.06;101457.00;2550569;28;20076;-79
2024/01/09 03:02:48;;;;;;;16.93;10.80;;;;;;;-6.49;66.00;101462.09;2554574;28;20686;-80
2024/01/09 03:04:02;;;;;;;22.97;14.20;;;;;;;-6.51;66.12;101461.09;2552494;28;20053;-79
2024/01/09 03:05:16;;;;;;;18.47;11.67;;;;;;;-6.51;66.04;101461.09;2548599;28;20276;-80
2024/01/09 03:06:30;;;;;;;24.27;15.53;;;;;;;-6.49;65.80;101464.63;2548584;28;20052;-79
2024/01/09 03:07:44;;;;;;;15.47;10.13;;;;;;;-6.49;65.78;101460.41;2548392;28;20780;-80
2024/01/09 03:08:57;;;;;;;14.70;10.53;;;;;;;-6.48;65.83;101462.22;2548677;28;20537;-80
2024/01/09 03:10:12;;;;;;;27.93;15.43;;;;;;;-6.47;65.87;101450.38;2547857;28;20299;-80
2024/01/09 03:11:25;;;;;;;25.60;15.87;;;;;;;-6.46;65.68;101454.69;2547248;28;20053;-81
2024/01/09 03:12:40;;;;;;;22.53;10.77;;;;;;;-6.46;65.74;101462.31;2548274;28;20342;-80
2024/01/09 03:13:53;;;;;;;24.20;14.70;;;;;;;-6.47;65.73;101460.53;2548096;28;20045;-79
2024/01/09 03:15:10;;;;;;;21.27;12.10;;;;;;;-6.48;65.73;101456.22;2548545;28;20304;-80
2024/01/09 03:16:23;;;;;;;20.20;11.83;;;;;;;-6.48;65.70;101453.69;2546251;28;20048;-80
2024/01/09 03:17:37;;;;;;;22.37;14.57;;;;;;;-6.48;65.82;101466.38;2547647;28;20289;-80
2024/01/09 03:18:52;;;;;;;24.40;15.10;;;;;;;-6.49;65.68;101459.53;2548449;28;20497;-80
2024/01/09 03:20:09;;;;;;;20.83;13.17;;;;;;;-6.49;65.76;101462.09;2547123;28;20307;-80
2024/01/09 03:21:22;;;;;;;21.17;13.33;;;;;;;-6.49;65.88;101459.53;2545844;28;20280;-80
2024/01/09 03:22:36;;;;;;;23.13;11.13;;;;;;;-6.49;65.49;101449.38;2547142;28;20315;-81
2024/01/09 03:23:50;;;;;;;26.83;16.00;;;;;;;-6.47;65.81;101458.00;2546207;28;20045;-81
2024/01/09 03:25:05;;;;;;;20.40;12.90;;;;;;;-6.47;65.77;101458.00;2545804;28;20371;-81
2024/01/09 03:26:18;;;;;;;31.33;16.23;;;;;;;-6.47;65.65;101453.81;2547047;28;20048;-81
2024/01/09 03:27:33;;;;;;;17.97;12.43;;;;;;;-6.46;65.58;101458.09;2549360;28;20315;-80
2024/01/09 03:28:46;;;;;;;29.40;16.17;;;;;;;-6.44;65.35;101453.16;2548601;28;20048;-80
2024/01/09 03:30:01;;;;;;;20.80;12.77;;;;;;;-6.44;65.39;101453.16;2548572;28;20343;-81
2024/01/09 03:31:20;;;;;;;20.70;9.77;;;;;;;-6.43;65.16;101454.91;2548400;28;20049;-80
2024/01/09 03:32:34;;;;;;;19.70;12.37;;;;;;;-6.44;65.28;101454.03;2548773;28;20307;-80
2024/01/09 03:33:48;;;;;;;24.03;14.57;;;;;;;-6.43;65.33;101455.81;2547358;28;20287;-80
2024/01/09 03:35:05;;;;;;;24.13;14.60;;;;;;;-6.42;65.00;101456.69;2547370;28;20646;-80
2024/01/09 03:36:18;;;;;;;13.67;9.13;;;;;;;-6.44;64.98;101454.03;2548368;28;20049;-80
2024/01/09 03:37:32;;;;;;;27.23;16.03;;;;;;;-6.44;64.97;101454.03;2547865;28;20283;-81
2024/01/09 03:38:46;;;;;;;18.97;13.40;;;;;;;-6.43;65.08;101450.72;2548676;28;20048;-81
2024/01/09 03:40:00;;;;;;;19.17;12.37;;;;;;;-6.44;65.12;101455.69;2548016;28;20305;-81
2024/01/09 03:41:14;;;;;;;24.57;14.57;;;;;;;-6.45;65.12;101459.88;2547698;28;20052;-80
2024/01/09 03:42:28;;;;;;;20.67;13.60;;;;;;;-6.46;65.22;101454.69;2548585;28;20309;-81
2024/01/09 03:43:42;;;;;;;26.33;15.23;;;;;;;-6.47;65.32;101452.94;2548875;28;20052;-81
2024/01/09 03:44:56;;;;;;;18.03;10.73;;;;;;;-6.48;65.25;101459.66;2549318;28;20313;-79
2024/01/09 03:46:09;;;;;;;28.40;13.50;;;;;;;-6.48;65.39;101446.97;2548268;28;20064;-80
2024/01/09 03:47:24;;;;;;;21.00;11.67;;;;;;;-6.48;65.36;101458.75;2547134;28;20672;-79
2024/01/09 03:48:37;;;;;;;20.10;13.70;;;;;;;-6.47;65.08;101458.88;2546970;28;20486;-80
2024/01/09 03:49:52;;;;;;;21.73;15.13;;;;;;;-6.47;65.09;101455.47;2546621;28;20272;-79
2024/01/09 03:51:06;;;;;;;25.13;12.47;;;;;;;-6.47;65.01;101458.88;2554402;28;20040;-80
2024/01/09 03:52:21;;;;;;;19.03;10.03;;;;;;;-6.47;65.02;101456.34;2547345;28;20415;-80
2024/01/09 03:53:34;;;;;;;23.70;13.97;;;;;;;-6.46;64.99;101447.94;2546926;28;20697;-80
2024/01/09 03:54:49;;;;;;;28.67;15.50;;;;;;;-6.46;65.07;101454.69;2547023;28;20311;-81
2024/01/09 03:56:02;;;;;;;23.77;14.17;;;;;;;-6.47;64.99;101450.38;2546724;28;20060;-80
2024/01/09 03:57:17;;;;;;;22.73;14.47;;;;;;;-6.47;65.10;101458.00;2546520;28;20275;-79
2024/01/09 03:58:30;;;;;;;23.93;14.20;;;;;;;-6.47;64.91;101448.72;2547484;28;20045;-78
2024/01/09 03:59:45;;;;;;;26.20;15.37;;;;;;;-6.47;64.91;101461.41;2547801;28;20295;-80
2024/01/09 04:00:58;;;;;;;26.37;15.30;;;;;;;-6.48;64.97;101458.75;2546979;28;20060;-79
2024/01/09 04:02:13;;;;;;;27.27;14.60;;;;;;;-6.47;65.27;101452.94;2547718;28;20299;-79
2024/01/09 04:03:26;;;;;;;18.43;11.03;;;;;;;-6.49;64.95;101462.97;2555857;28;20045;-79
2024/01/09 04:04:41;;;;;;;26.67;13.70;;;;;;;-6.50;65.21;101458.66;2547227;28;20299;-79
2024/01/09 04:05:54;;;;;;;24.37;12.77;;;;;;;-6.51;65.04;101456.88;2546651;28;20049;-78
2024/01/09 04:07:10;;;;;;;25.83;15.10;;;;;;;-6.52;65.24;101456.78;2547153;28;20372;-80
2024/01/09 04:08:23;;;;;;;24.07;14.50;;;;;;;-6.53;65.24;101452.47;2546490;28;20049;-79
2024/01/09 04:09:38;;;;;;;20.07;12.27;;;;;;;-6.54;65.33;101451.59;2546976;28;20788;-80
2024/01/09 04:10:51;;;;;;;17.43;11.80;;;;;;;-6.55;65.42;101448.97;2546897;28;20094;-80
2024/01/09 04:12:06;;;;;;;22.90;13.10;;;;;;;-6.55;65.41;101443.88;2547689;28;20307;-80
2024/01/09 04:13:20;;;;;;;16.30;12.27;;;;;;;-6.54;65.06;101435.47;2546359;28;20037;-80
2024/01/09 04:14:35;;;;;;;28.43;14.03;;;;;;;-6.53;65.07;101442.31;2547053;28;20310;-79
2024/01/09 04:15:48;;;;;;;21.00;12.97;;;;;;;-6.54;65.21;101446.50;2547083;28;20379;-80
2024/01/09 04:17:03;;;;;;;29.80;12.17;;;;;;;-6.52;65.33;101439.00;2546270;28;20309;-79
2024/01/09 04:18:16;;;;;;;19.50;11.57;;;;;;;-6.53;65.08;101439.75;2546351;28;20048;-80
2024/01/09 04:19:30;;;;;;;21.83;13.43;;;;;;;-6.53;65.00;101442.31;2546267;28;20310;-80
2024/01/09 04:20:44;;;;;;;15.70;10.13;;;;;;;-6.54;65.18;101435.47;2549937;28;20045;-79
2024/01/09 04:22:00;;;;;;;21.57;12.60;;;;;;;-6.53;64.93;101437.22;2546180;28;20287;-80
2024/01/09 04:23:15;;;;;;;25.10;13.73;;;;;;;-6.54;65.15;101432.94;2546013;28;20049;-79
2024/01/09 04:24:30;;;;;;;17.90;11.27;;;;;;;-6.53;65.03;101434.69;2538299;28;20314;-79
2024/01/09 04:25:43;;;;;;;24.20;15.17;;;;;;;-6.52;64.92;101433.94;2546481;28;20295;-80
2024/01/09 04:26:58;;;;;;;16.40;10.50;;;;;;;-6.52;65.06;101433.94;2546485;28;20303;-80
2024/01/09 04:28:11;;;;;;;23.97;15.20;;;;;;;-6.53;64.91;101435.59;2546527;28;20466;-79
2024/01/09 04:29:26;;;;;;;22.63;13.73;;;;;;;-6.53;64.88;101433.06;2546374;28;20286;-79
2024/01/09 04:30:39;;;;;;;17.17;10.97;;;;;;;-6.52;64.87;101439.00;2546767;28;20421;-79
2024/01/09 04:31:54;;;;;;;23.73;14.40;;;;;;;-6.53;65.06;101438.13;2546611;28;20307;-79
2024/01/09 04:33:08;;;;;;;17.13;11.50;;;;;;;-6.54;65.07;101440.56;2546427;28;20053;-80
2024/01/09 04:34:23;;;;;;;23.77;11.17;;;;;;;-6.53;65.02;101438.13;2545486;28;20307;-80
2024/01/09 04:35:36;;;;;;;18.47;11.97;;;;;;;-6.51;64.85;101440.75;2546760;28;20358;-79
2024/01/09 04:36:51;;;;;;;15.50;8.17;;;;;;;-6.53;64.78;101433.06;2546098;28;20359;-79
2024/01/09 04:38:04;;;;;;;15.33;10.57;;;;;;;-6.52;64.77;101442.44;2552957;28;20044;-79
2024/01/09 04:39:20;;;;;;;20.83;12.40;;;;;;;-6.52;64.63;101444.97;2547914;28;20313;-79
2024/01/09 04:40:33;;;;;;;22.67;12.83;;;;;;;-6.52;64.83;101437.34;2546564;28;20399;-79
2024/01/09 04:41:48;;;;;;;20.27;11.17;;;;;;;-6.51;64.76;101440.75;2545880;28;20290;-79
2024/01/09 04:43:01;;;;;;;13.47;8.43;;;;;;;-6.50;64.33;101442.56;2546036;28;20048;-79
2024/01/09 04:44:16;;;;;;;20.10;11.20;;;;;;;-6.49;64.50;101440.09;2546455;28;20321;-80
2024/01/09 04:45:29;;;;;;;21.50;11.93;;;;;;;-6.47;64.23;101435.16;2545912;28;20045;-79
2024/01/09 04:46:43;;;;;;;17.93;10.83;;;;;;;-6.46;64.37;101434.38;2549674;28;20590;-78
2024/01/09 04:47:57;;;;;;;22.57;11.43;;;;;;;-6.47;64.41;101433.50;2550585;28;20502;-79
2024/01/09 04:49:11;;;;;;;18.10;10.60;;;;;;;-6.46;64.40;101439.44;2545666;28;20314;-79
2024/01/09 04:50:25;;;;;;;19.23;12.87;;;;;;;-6.46;64.15;101439.44;2546311;28;20049;-78
2024/01/09 04:51:39;;;;;;;22.80;15.50;;;;;;;-6.48;64.35;101441.88;2546551;28;20307;-79
2024/01/09 04:52:52;;;;;;;20.90;13.47;;;;;;;-6.49;64.39;101432.50;2546412;28;20053;-78
2024/01/09 04:54:07;;;;;;;29.33;17.37;;;;;;;-6.50;64.43;101442.56;2545542;28;20672;-79
2024/01/09 04:55:22;;;;;;;25.73;15.03;;;;;;;-6.51;64.50;101441.63;2546164;28;20048;-78
2024/01/09 04:56:36;;;;;;;32.73;16.87;;;;;;;-6.53;64.63;101438.13;2549643;28;20345;-79
2024/01/09 04:57:50;;;;;;;25.20;14.93;;;;;;;-6.54;64.66;101435.47;2552650;28;20287;-79
2024/01/09 04:59:04;;;;;;;25.13;15.23;;;;;;;-6.53;64.73;101452.47;2546671;28;20313;-79
2024/01/09 05:00:19;;;;;;;17.47;11.00;;;;;;;-6.53;64.92;101453.38;2546554;28;20498;-79
2024/01/09 05:01:33;;;;;;;23.63;14.07;;;;;;;-6.54;64.84;101449.03;2547418;28;20833;-78
2024/01/09 05:02:47;;;;;;;20.73;10.97;;;;;;;-6.54;64.81;101438.88;2552580;28;20804;-78
2024/01/09 05:04:01;;;;;;;24.73;13.40;;;;;;;-6.53;64.73;101448.28;2546768;28;20317;-80
2024/01/09 05:05:15;;;;;;;22.80;13.60;;;;;;;-6.51;64.69;101445.84;2545822;28;20063;-79
2024/01/09 05:06:29;;;;;;;23.17;14.80;;;;;;;-6.50;64.60;101455.25;2546874;28;20387;-80
2024/01/09 05:07:42;;;;;;;14.53;10.57;;;;;;;-6.50;64.63;101442.56;2546890;28;20041;-80
2024/01/09 05:08:57;;;;;;;21.70;12.40;;;;;;;-6.50;64.70;101447.63;2546422;28;20318;-79
2024/01/09 05:10:10;;;;;;;17.77;12.03;;;;;;;-6.53;64.76;101442.31;2546225;28;20049;-79
2024/01/09 05:11:26;;;;;;;16.67;12.87;;;;;;;-6.53;64.87;101450.84;2546184;28;20386;-80
2024/01/09 05:12:40;;;;;;;20.60;13.33;;;;;;;-6.53;64.94;101447.38;2546285;28;20052;-79
2024/01/09 05:13:54;;;;;;;24.23;13.13;;;;;;;-6.54;64.73;101450.72;2546072;28;20284;-79
2024/01/09 05:15:08;;;;;;;19.87;12.80;;;;;;;-6.54;64.67;101455.78;2546695;28;20056;-79
2024/01/09 05:16:24;;;;;;;21.50;12.90;;;;;;;-6.55;64.71;101452.38;2546140;28;20307;-80
2024/01/09 05:17:38;;;;;;;20.53;12.73;;;;;;;-6.55;64.91;101443.88;2545858;28;20673;-79
2024/01/09 05:18:52;;;;;;;22.17;13.47;;;;;;;-6.56;65.10;101453.13;2546768;28;20318;-80
2024/01/09 05:20:06;;;;;;;19.20;13.33;;;;;;;-6.55;64.79;101451.50;2546372;28;20641;-79
2024/01/09 05:21:21;;;;;;;21.93;12.27;;;;;;;-6.55;64.96;101442.22;2546348;28;20276;-79
2024/01/09 05:22:35;;;;;;;20.27;12.63;;;;;;;-6.54;64.73;101453.25;2546164;28;20299;-80
2024/01/09 05:23:49;;;;;;;24.20;13.33;;;;;;;-6.51;64.18;101456.00;2546791;28;20357;-79
2024/01/09 05:25:04;;;;;;;26.40;15.90;;;;;;;-6.50;64.60;101455.25;2545944;28;20055;-80
2024/01/09 05:26:18;;;;;;;18.00;11.87;;;;;;;-6.49;64.40;101446.84;2546309;28;20356;-80
2024/01/09 05:27:33;;;;;;;26.93;13.10;;;;;;;-6.49;64.20;101449.38;2545939;28;20302;-78
2024/01/09 05:28:47;;;;;;;18.43;11.03;;;;;;;-6.49;64.33;101449.38;2546346;28;20407;-79
2024/01/09 05:30:01;;;;;;;22.70;15.90;;;;;;;-6.49;64.37;101444.31;2545989;28;20280;-79
2024/01/09 05:31:16;;;;;;;21.63;14.13;;;;;;;-6.51;64.53;101446.72;2546897;28;20426;-79
2024/01/09 05:32:29;;;;;;;22.57;13.00;;;;;;;-6.52;64.51;101459.31;2546161;28;20056;-79
2024/01/09 05:33:43;;;;;;;25.33;15.90;;;;;;;-6.54;64.40;101454.13;2545897;28;20647;-79
2024/01/09 05:34:57;;;;;;;15.10;8.33;;;;;;;-6.55;64.45;101451.50;2546692;28;20053;-79
2024/01/09 05:36:11;;;;;;;15.83;9.90;;;;;;;-6.54;64.49;101465.94;2546032;28;20311;-79
2024/01/09 05:37:25;;;;;;;19.97;12.37;;;;;;;-6.54;64.81;101458.31;2545065;28;20045;-79